Owenton, Kentucky
Current Conditions -  °F | °C
As of 8:53 AM on Monday 26 Jan 2015 (Local Time) from KFFT Reporting Station
Overcast Overcast  
Wind Chill: 11°   Ceiling: 1200
Heat Index: 23°   Visibility: 10mi
Dew Point: 18°   Wind: 13mph
Humidity: 81%   Direction: 310°NW
Pressure: 29.88"   Gusts: 18mph
Location:  38.54°N, 84.84°W
Report Text: KFFT 261353Z AUTO 31011G16KT 10SM OVC012 M05/M08 A2988 RMK AO2 SLP124 T10501078
Loading
Personal Weather Stations






























Interactive Weather Map New forecast layout! Learn more

10-Day Weather Forecast

Advertisements
Track Severe Weather on mobile